Delta Virtual Airport Information Service

Dallas Love Field Airport

ICAO: KDAL Country: United States
Latitude: 32.8471 Longitude: -96.8517
Latest Arrival : SWA4265 (C) (KHRL-KDAL) Latest Departure : SWA1006 (D) (KDAL-KLAS)


WX CaptureLIVE
Data provided by noaa.gov | Fetched at 07:12:59

METAR : KDAL 271153Z 00000KT 10SM FEW250 01/M03 A3026 RMK AO2 SLP249 T00061033 10056 21006 57008 $

TAF : KDAL 271153Z 00000KT 10SM FEW250 01/M03 A3026 RMK AO2 SLP249 T00061033 10056 21006 57008 $


Runway Data for KDAL
Data provided by openaviationdata.com

Runway ID Mag Var Hdg Length Elevation Surface ILS Freq ILS Id ILS Slope
13L 6 129° 7755 ft 487 ft Concrete 111.5 IDAL 3
13R 6 129° 8804 ft 487 ft Concrete 111.1 IDPX 3
18 6 179° 6158 ft 487 ft Asphalt -- -- --
31L 6 309° 8804 ft 487 ft Concrete 111.1 ILVF 3
31R 6 309° 7755 ft 487 ft Concrete 111.5 IOVW 3
36 6 359° 6158 ft 487 ft Asphalt -- -- --

Dallas Love Field Airport, United States
Use only for reference purposes



Not for navigational purposes.